sensor_id;sensor_type;location;lat;lon;timestamp;pressure;altitude;pressure_sealevel;temperature;humidity
65997;BME280;52765;52.258;21.052;2023-04-21T00:01:10;101064.13;;;10.77;55.66
65997;BME280;52765;52.258;21.052;2023-04-21T00:03:37;101059.72;;;10.76;55.74
65997;BME280;52765;52.258;21.052;2023-04-21T00:06:04;101062.56;;;10.74;55.67
65997;BME280;52765;52.258;21.052;2023-04-21T00:08:30;101050.22;;;10.71;55.93
65997;BME280;52765;52.258;21.052;2023-04-21T00:10:56;101058.59;;;10.68;56.09
65997;BME280;52765;52.258;21.052;2023-04-21T00:13:21;101050.94;;;10.64;56.35
65997;BME280;52765;52.258;21.052;2023-04-21T00:15:48;101056.75;;;10.59;56.52
65997;BME280;52765;52.258;21.052;2023-04-21T00:18:13;101052.63;;;10.55;56.54
65997;BME280;52765;52.258;21.052;2023-04-21T00:20:39;101049.38;;;10.51;56.93
65997;BME280;52765;52.258;21.052;2023-04-21T00:23:04;101048.06;;;10.46;57.07
65997;BME280;52765;52.258;21.052;2023-04-21T00:25:30;101040.00;;;10.36;57.63
65997;BME280;52765;52.258;21.052;2023-04-21T00:27:56;101043.53;;;10.36;57.56
65997;BME280;52765;52.258;21.052;2023-04-21T00:30:21;101046.06;;;10.38;57.41
65997;BME280;52765;52.258;21.052;2023-04-21T00:32:51;101047.63;;;10.41;57.85
65997;BME280;52765;52.258;21.052;2023-04-21T00:35:20;101053.31;;;10.38;57.92
65997;BME280;52765;52.258;21.052;2023-04-21T00:37:48;101051.13;;;10.31;57.63
65997;BME280;52765;52.258;21.052;2023-04-21T00:40:17;101039.66;;;10.29;58.39
65997;BME280;52765;52.258;21.052;2023-04-21T00:42:44;101041.19;;;10.22;58.22
65997;BME280;52765;52.258;21.052;2023-04-21T00:45:10;101036.81;;;10.21;58.36
65997;BME280;52765;52.258;21.052;2023-04-21T00:47:36;101042.31;;;10.19;58.32
65997;BME280;52765;52.258;21.052;2023-04-21T00:50:04;101034.50;;;10.16;58.64
65997;BME280;52765;52.258;21.052;2023-04-21T00:52:35;101044.56;;;10.14;58.80
65997;BME280;52765;52.258;21.052;2023-04-21T00:55:01;101043.25;;;10.09;59.31
65997;BME280;52765;52.258;21.052;2023-04-21T00:57:27;101036.88;;;10.00;59.82
65997;BME280;52765;52.258;21.052;2023-04-21T00:59:56;101037.44;;;10.04;59.69
65997;BME280;52765;52.258;21.052;2023-04-21T01:02:24;101035.75;;;10.03;59.76
65997;BME280;52765;52.258;21.052;2023-04-21T01:04:53;101036.16;;;9.98;60.13
65997;BME280;52765;52.258;21.052;2023-04-21T01:07:21;101032.03;;;9.94;60.01
65997;BME280;52765;52.258;21.052;2023-04-21T01:09:46;101028.63;;;9.92;60.31
65997;BME280;52765;52.258;21.052;2023-04-21T01:12:12;101041.09;;;9.93;60.13
65997;BME280;52765;52.258;21.052;2023-04-21T01:14:40;101033.69;;;9.85;60.24
65997;BME280;52765;52.258;21.052;2023-04-21T01:17:08;101031.28;;;9.82;60.75
65997;BME280;52765;52.258;21.052;2023-04-21T01:19:39;101035.50;;;9.75;60.95
65997;BME280;52765;52.258;21.052;2023-04-21T01:22:10;101022.31;;;9.72;61.06
65997;BME280;52765;52.258;21.052;2023-04-21T01:24:37;101033.50;;;9.77;61.15
65997;BME280;52765;52.258;21.052;2023-04-21T01:27:12;101031.53;;;9.69;61.31
65997;BME280;52765;52.258;21.052;2023-04-21T01:29:42;101038.44;;;9.72;61.23
65997;BME280;52765;52.258;21.052;2023-04-21T01:32:16;101039.13;;;9.64;61.84
65997;BME280;52765;52.258;21.052;2023-04-21T01:34:42;101041.22;;;9.60;61.60
65997;BME280;52765;52.258;21.052;2023-04-21T01:37:16;101037.09;;;9.56;62.42
65997;BME280;52765;52.258;21.052;2023-04-21T01:39:48;101035.78;;;9.51;62.49
65997;BME280;52765;52.258;21.052;2023-04-21T01:42:24;101039.03;;;9.44;62.63
65997;BME280;52765;52.258;21.052;2023-04-21T01:44:55;101040.13;;;9.42;63.36
65997;BME280;52765;52.258;21.052;2023-04-21T01:47:24;101031.75;;;9.35;63.72
65997;BME280;52765;52.258;21.052;2023-04-21T01:49:54;101039.09;;;9.33;63.70
65997;BME280;52765;52.258;21.052;2023-04-21T01:52:20;101030.72;;;9.26;63.96
65997;BME280;52765;52.258;21.052;2023-04-21T01:54:49;101041.19;;;9.30;63.95
65997;BME280;52765;52.258;21.052;2023-04-21T01:57:17;101034.09;;;9.29;64.01
65997;BME280;52765;52.258;21.052;2023-04-21T01:59:44;101034.63;;;9.22;64.40
65997;BME280;52765;52.258;21.052;2023-04-21T02:02:09;101034.16;;;9.17;64.59
65997;BME280;52765;52.258;21.052;2023-04-21T02:04:40;101032.22;;;9.19;64.84
65997;BME280;52765;52.258;21.052;2023-04-21T02:07:05;101036.28;;;9.14;65.21
65997;BME280;52765;52.258;21.052;2023-04-21T02:09:30;101032.16;;;9.10;65.77
65997;BME280;52765;52.258;21.052;2023-04-21T02:11:56;101034.25;;;9.06;66.34
65997;BME280;52765;52.258;21.052;2023-04-21T02:14:22;101034.97;;;9.08;65.97
65997;BME280;52765;52.258;21.052;2023-04-21T02:16:48;101026.44;;;9.03;66.37
65997;BME280;52765;52.258;21.052;2023-04-21T02:19:13;101038.28;;;9.00;66.57
65997;BME280;52765;52.258;21.052;2023-04-21T02:21:39;101035.22;;;9.05;66.44
65997;BME280;52765;52.258;21.052;2023-04-21T02:24:05;101034.97;;;9.08;66.55
65997;BME280;52765;52.258;21.052;2023-04-21T02:26:30;101042.16;;;9.07;66.60
65997;BME280;52765;52.258;21.052;2023-04-21T02:28:55;101038.63;;;9.07;66.32
65997;BME280;52765;52.258;21.052;2023-04-21T02:31:22;101038.28;;;9.00;66.91
65997;BME280;52765;52.258;21.052;2023-04-21T02:33:47;101033.44;;;8.94;67.45
65997;BME280;52765;52.258;21.052;2023-04-21T02:36:13;101038.97;;;8.93;67.81
65997;BME280;52765;52.258;21.052;2023-04-21T02:38:38;101039.94;;;8.92;67.94
65997;BME280;52765;52.258;21.052;2023-04-21T02:41:04;101041.66;;;8.93;67.92
65997;BME280;52765;52.258;21.052;2023-04-21T02:43:29;101033.97;;;8.88;68.02
65997;BME280;52765;52.258;21.052;2023-04-21T02:45:56;101036.78;;;8.86;68.15
65997;BME280;52765;52.258;21.052;2023-04-21T02:48:21;101026.53;;;8.80;67.75
65997;BME280;52765;52.258;21.052;2023-04-21T02:50:49;101028.84;;;8.85;68.63
65997;BME280;52765;52.258;21.052;2023-04-21T02:53:17;101025.44;;;8.83;68.81
65997;BME280;52765;52.258;21.052;2023-04-21T02:55:43;101017.66;;;8.80;68.63
65997;BME280;52765;52.258;21.052;2023-04-21T02:58:08;101028.25;;;8.81;69.08
65997;BME280;52765;52.258;21.052;2023-04-21T03:00:34;101031.06;;;8.80;69.18
65997;BME280;52765;52.258;21.052;2023-04-21T03:02:59;101026.53;;;8.80;69.19
65997;BME280;52765;52.258;21.052;2023-04-21T03:05:25;101023.97;;;8.79;69.56
65997;BME280;52765;52.258;21.052;2023-04-21T03:07:51;101024.84;;;8.79;68.93
65997;BME280;52765;52.258;21.052;2023-04-21T03:10:16;101025.94;;;8.77;69.24
65997;BME280;52765;52.258;21.052;2023-04-21T03:12:41;101028.19;;;8.72;69.19
65997;BME280;52765;52.258;21.052;2023-04-21T03:15:07;101023.06;;;8.68;69.94
65997;BME280;52765;52.258;21.052;2023-04-21T03:17:33;101027.59;;;8.68;70.44
65997;BME280;52765;52.258;21.052;2023-04-21T03:19:58;101024.16;;;8.66;69.98
65997;BME280;52765;52.258;21.052;2023-04-21T03:22:23;101023.44;;;8.64;69.72
65997;BME280;52765;52.258;21.052;2023-04-21T03:24:49;101020.28;;;8.59;70.19
65997;BME280;52765;52.258;21.052;2023-04-21T03:27:15;101025.06;;;8.55;70.43
65997;BME280;52765;52.258;21.052;2023-04-21T03:29:41;101027.63;;;8.57;70.59
65997;BME280;52765;52.258;21.052;2023-04-21T03:32:06;101025.44;;;8.50;70.69
65997;BME280;52765;52.258;21.052;2023-04-21T03:34:32;101019.72;;;8.44;71.36
65997;BME280;52765;52.258;21.052;2023-04-21T03:37:00;101030.34;;;8.45;71.24
65997;BME280;52765;52.258;21.052;2023-04-21T03:39:26;101023.63;;;8.51;71.36
65997;BME280;52765;52.258;21.052;2023-04-21T03:41:51;101032.88;;;8.58;70.59
65997;BME280;52765;52.258;21.052;2023-04-21T03:44:17;101030.19;;;8.58;70.18
65997;BME280;52765;52.258;21.052;2023-04-21T03:46:42;101033.97;;;8.56;69.84
65997;BME280;52765;52.258;21.052;2023-04-21T03:49:07;101030.56;;;8.54;69.82
65997;BME280;52765;52.258;21.052;2023-04-21T03:51:33;101029.25;;;8.48;69.85
65997;BME280;52765;52.258;21.052;2023-04-21T03:53:58;101037.41;;;8.46;70.36
65997;BME280;52765;52.258;21.052;2023-04-21T03:56:24;101050.84;;;8.35;70.60
65997;BME280;52765;52.258;21.052;2023-04-21T03:58:49;101042.91;;;8.33;70.48
65997;BME280;52765;52.258;21.052;2023-04-21T04:01:15;101049.88;;;8.36;70.13
65997;BME280;52765;52.258;21.052;2023-04-21T04:03:40;101041.59;;;8.28;70.53
65997;BME280;52765;52.258;21.052;2023-04-21T04:06:06;101045.84;;;8.30;70.75
65997;BME280;52765;52.258;21.052;2023-04-21T04:08:34;101048.88;;;8.37;69.82
65997;BME280;52765;52.258;21.052;2023-04-21T04:11:00;101048.28;;;8.33;69.63
65997;BME280;52765;52.258;21.052;2023-04-21T04:13:25;101054.59;;;8.32;69.91
65997;BME280;52765;52.258;21.052;2023-04-21T04:15:52;101057.81;;;8.26;69.47
65997;BME280;52765;52.258;21.052;2023-04-21T04:18:17;101051.06;;;8.32;69.54
65997;BME280;52765;52.258;21.052;2023-04-21T04:20:43;101056.09;;;8.37;69.27
65997;BME280;52765;52.258;21.052;2023-04-21T04:23:08;101042.53;;;8.38;68.85
65997;BME280;52765;52.258;21.052;2023-04-21T04:25:34;101060.00;;;8.44;68.86
65997;BME280;52765;52.258;21.052;2023-04-21T04:28:01;101056.56;;;8.42;68.92
65997;BME280;52765;52.258;21.052;2023-04-21T04:30:27;101060.47;;;8.49;68.12
65997;BME280;52765;52.258;21.052;2023-04-21T04:32:53;101060.09;;;8.54;67.85
65997;BME280;52765;52.258;21.052;2023-04-21T04:35:19;101059.72;;;8.58;67.17
65997;BME280;52765;52.258;21.052;2023-04-21T04:37:44;101063.97;;;8.61;67.46
65997;BME280;52765;52.258;21.052;2023-04-21T04:40:10;101068.97;;;8.65;67.56
65997;BME280;52765;52.258;21.052;2023-04-21T04:42:36;101070.56;;;8.68;66.92
65997;BME280;52765;52.258;21.052;2023-04-21T04:45:04;101080.66;;;8.76;66.58
65997;BME280;52765;52.258;21.052;2023-04-21T04:47:32;101072.22;;;8.80;65.60
65997;BME280;52765;52.258;21.052;2023-04-21T04:49:58;101069.16;;;8.85;65.32
65997;BME280;52765;52.258;21.052;2023-04-21T04:52:23;101064.84;;;8.94;64.97
65997;BME280;52765;52.258;21.052;2023-04-21T04:54:49;101070.81;;;8.97;64.12
65997;BME280;52765;52.258;21.052;2023-04-21T04:57:14;101073.47;;;8.97;63.83
65997;BME280;52765;52.258;21.052;2023-04-21T04:59:40;101072.97;;;9.03;63.78
65997;BME280;52765;52.258;21.052;2023-04-21T05:02:06;101071.47;;;9.11;63.24
65997;BME280;52765;52.258;21.052;2023-04-21T05:04:34;101074.91;;;9.13;62.00
65997;BME280;52765;52.258;21.052;2023-04-21T05:06:59;101070.50;;;9.12;61.99
65997;BME280;52765;52.258;21.052;2023-04-21T05:09:25;101073.53;;;9.18;62.06
65997;BME280;52765;52.258;21.052;2023-04-21T05:11:50;101069.06;;;9.29;61.64
65997;BME280;52765;52.258;21.052;2023-04-21T05:14:16;101073.53;;;9.39;60.93
65997;BME280;52765;52.258;21.052;2023-04-21T05:16:42;101063.94;;;9.47;60.40
65997;BME280;52765;52.258;21.052;2023-04-21T05:19:08;101066.81;;;9.55;60.10
65997;BME280;52765;52.258;21.052;2023-04-21T05:21:33;101069.97;;;9.60;59.07
65997;BME280;52765;52.258;21.052;2023-04-21T05:23:59;101070.16;;;9.68;59.00
65997;BME280;52765;52.258;21.052;2023-04-21T05:26:26;101067.34;;;9.70;58.38
65997;BME280;52765;52.258;21.052;2023-04-21T05:28:56;101068.50;;;9.77;58.43
65997;BME280;52765;52.258;21.052;2023-04-21T05:31:24;101069.81;;;9.82;58.25
65997;BME280;52765;52.258;21.052;2023-04-21T05:33:50;101067.00;;;9.94;57.10
65997;BME280;52765;52.258;21.052;2023-04-21T05:36:16;101066.06;;;10.05;56.41
65997;BME280;52765;52.258;21.052;2023-04-21T05:38:42;101059.56;;;10.07;56.57
65997;BME280;52765;52.258;21.052;2023-04-21T05:41:07;101068.06;;;10.12;56.49
65997;BME280;52765;52.258;21.052;2023-04-21T05:43:33;101072.06;;;10.18;56.13
65997;BME280;52765;52.258;21.052;2023-04-21T05:46:00;101071.38;;;10.26;55.80
65997;BME280;52765;52.258;21.052;2023-04-21T05:48:25;101069.00;;;10.32;55.30
65997;BME280;52765;52.258;21.052;2023-04-21T05:50:54;101066.63;;;10.39;54.62
65997;BME280;52765;52.258;21.052;2023-04-21T05:53:20;101069.47;;;10.47;54.23
65997;BME280;52765;52.258;21.052;2023-04-21T05:55:47;101066.38;;;10.52;54.38
65997;BME280;52765;52.258;21.052;2023-04-21T05:58:13;101062.84;;;10.61;53.60
65997;BME280;52765;52.258;21.052;2023-04-21T06:00:38;101061.16;;;10.70;53.36
65997;BME280;52765;52.258;21.052;2023-04-21T06:03:12;101057.16;;;10.74;52.80
65997;BME280;52765;52.258;21.052;2023-04-21T06:05:38;101053.91;;;10.80;52.75
65997;BME280;52765;52.258;21.052;2023-04-21T06:08:04;101065.41;;;10.92;52.63
65997;BME280;52765;52.258;21.052;2023-04-21T06:10:29;101047.84;;;10.98;52.09
65997;BME280;52765;52.258;21.052;2023-04-21T06:12:55;101052.91;;;11.10;51.63
65997;BME280;52765;52.258;21.052;2023-04-21T06:15:20;101053.94;;;11.19;51.38
65997;BME280;52765;52.258;21.052;2023-04-21T06:17:46;101056.91;;;11.26;51.31
65997;BME280;52765;52.258;21.052;2023-04-21T06:20:11;101052.06;;;11.29;51.33
65997;BME280;52765;52.258;21.052;2023-04-21T06:22:37;101059.69;;;11.44;51.15
65997;BME280;52765;52.258;21.052;2023-04-21T06:25:02;101050.03;;;11.51;50.59
65997;BME280;52765;52.258;21.052;2023-04-21T06:27:28;101055.41;;;11.61;50.25
65997;BME280;52765;52.258;21.052;2023-04-21T06:29:54;101058.22;;;11.69;49.56
65997;BME280;52765;52.258;21.052;2023-04-21T06:32:20;101052.47;;;11.82;49.40
65997;BME280;52765;52.258;21.052;2023-04-21T06:34:45;101047.63;;;11.95;48.93
65997;BME280;52765;52.258;21.052;2023-04-21T06:37:11;101052.28;;;12.03;48.87
65997;BME280;52765;52.258;21.052;2023-04-21T06:39:36;101046.16;;;12.11;48.97
65997;BME280;52765;52.258;21.052;2023-04-21T06:42:02;101048.91;;;12.19;48.74
65997;BME280;52765;52.258;21.052;2023-04-21T06:44:27;101037.38;;;12.27;48.54
65997;BME280;52765;52.258;21.052;2023-04-21T06:46:53;101040.16;;;12.35;48.28
65997;BME280;52765;52.258;21.052;2023-04-21T06:49:18;101041.50;;;12.49;47.85
65997;BME280;52765;52.258;21.052;2023-04-21T06:51:44;101043.59;;;12.55;47.18
65997;BME280;52765;52.258;21.052;2023-04-21T06:54:11;101039.84;;;12.66;47.20
65997;BME280;52765;52.258;21.052;2023-04-21T06:56:37;101043.16;;;12.77;47.37
65997;BME280;52765;52.258;21.052;2023-04-21T06:59:02;101044.06;;;12.86;46.89
65997;BME280;52765;52.258;21.052;2023-04-21T07:01:28;101040.59;;;12.94;46.34
65997;BME280;52765;52.258;21.052;2023-04-21T07:03:53;101031.31;;;12.96;45.90
65997;BME280;52765;52.258;21.052;2023-04-21T07:06:19;101050.31;;;13.05;45.14
65997;BME280;52765;52.258;21.052;2023-04-21T07:08:44;101040.41;;;13.13;45.17
65997;BME280;52765;52.258;21.052;2023-04-21T07:11:11;101044.59;;;13.26;44.91
65997;BME280;52765;52.258;21.052;2023-04-21T07:13:36;101031.84;;;13.36;44.09
65997;BME280;52765;52.258;21.052;2023-04-21T07:16:02;101032.88;;;13.43;44.20
65997;BME280;52765;52.258;21.052;2023-04-21T07:18:27;101043.13;;;13.58;43.41
65997;BME280;52765;52.258;21.052;2023-04-21T07:20:53;101039.81;;;13.64;43.57
65997;BME280;52765;52.258;21.052;2023-04-21T07:23:18;101037.66;;;13.76;43.20
65997;BME280;52765;52.258;21.052;2023-04-21T07:25:44;101040.94;;;13.87;43.63
65997;BME280;52765;52.258;21.052;2023-04-21T07:28:09;101034.66;;;13.87;42.31
65997;BME280;52765;52.258;21.052;2023-04-21T07:30:35;101037.41;;;13.95;42.88
65997;BME280;52765;52.258;21.052;2023-04-21T07:33:01;101035.06;;;14.00;42.42
65997;BME280;52765;52.258;21.052;2023-04-21T07:35:27;101036.44;;;14.04;42.11
65997;BME280;52765;52.258;21.052;2023-04-21T07:37:52;101034.25;;;14.08;41.79
65997;BME280;52765;52.258;21.052;2023-04-21T07:40:18;101033.94;;;14.11;41.48
65997;BME280;52765;52.258;21.052;2023-04-21T07:42:44;101034.63;;;14.21;41.69
65997;BME280;52765;52.258;21.052;2023-04-21T07:45:10;101031.47;;;14.34;41.87
65997;BME280;52765;52.258;21.052;2023-04-21T07:47:36;101032.34;;;14.51;41.42
65997;BME280;52765;52.258;21.052;2023-04-21T07:50:02;101024.56;;;14.56;41.25
65997;BME280;52765;52.258;21.052;2023-04-21T07:52:27;101031.75;;;14.66;40.93
65997;BME280;52765;52.258;21.052;2023-04-21T07:54:53;101019.53;;;14.70;40.48
65997;BME280;52765;52.258;21.052;2023-04-21T07:57:18;101021.09;;;14.80;40.51
65997;BME280;52765;52.258;21.052;2023-04-21T07:59:44;101017.84;;;14.93;39.79
65997;BME280;52765;52.258;21.052;2023-04-21T08:02:09;101011.09;;;14.97;39.06
65997;BME280;52765;52.258;21.052;2023-04-21T08:04:35;101020.56;;;15.10;38.86
65997;BME280;52765;52.258;21.052;2023-04-21T08:07:00;101019.22;;;15.22;38.42
65997;BME280;52765;52.258;21.052;2023-04-21T08:09:26;101012.09;;;15.29;38.70
65997;BME280;52765;52.258;21.052;2023-04-21T08:11:52;101014.13;;;15.27;37.88
65997;BME280;52765;52.258;21.052;2023-04-21T08:14:19;101012.09;;;15.29;38.19
65997;BME280;52765;52.258;21.052;2023-04-21T08:16:45;101008.50;;;15.37;37.83
65997;BME280;52765;52.258;21.052;2023-04-21T08:19:11;101006.31;;;15.41;37.73
65997;BME280;52765;52.258;21.052;2023-04-21T08:21:37;101017.16;;;15.49;38.21
65997;BME280;52765;52.258;21.052;2023-04-21T08:24:02;101016.44;;;15.55;36.72
65997;BME280;52765;52.258;21.052;2023-04-21T08:26:30;101014.38;;;15.65;36.38
65997;BME280;52765;52.258;21.052;2023-04-21T08:28:58;101011.13;;;15.70;36.23
65997;BME280;52765;52.258;21.052;2023-04-21T08:31:30;101015.06;;;15.76;35.91
65997;BME280;52765;52.258;21.052;2023-04-21T08:33:56;101008.91;;;15.82;35.81
65997;BME280;52765;52.258;21.052;2023-04-21T08:36:21;101007.56;;;15.86;36.08
65997;BME280;52765;52.258;21.052;2023-04-21T08:38:47;101007.91;;;15.83;35.83
65997;BME280;52765;52.258;21.052;2023-04-21T08:41:12;101011.59;;;15.90;35.95
65997;BME280;52765;52.258;21.052;2023-04-21T08:43:38;101003.41;;;15.98;34.28
65997;BME280;52765;52.258;21.052;2023-04-21T08:46:06;101005.25;;;16.06;34.93
65997;BME280;52765;52.258;21.052;2023-04-21T08:48:36;100995.06;;;16.08;34.66
65997;BME280;52765;52.258;21.052;2023-04-21T08:51:02;101003.84;;;16.18;34.88
65997;BME280;52765;52.258;21.052;2023-04-21T08:53:28;100999.41;;;16.25;33.10
65997;BME280;52765;52.258;21.052;2023-04-21T08:55:55;100993.09;;;16.25;32.50
65997;BME280;52765;52.258;21.052;2023-04-21T08:58:22;100990.16;;;16.35;31.72
65997;BME280;52765;52.258;21.052;2023-04-21T09:00:48;100989.94;;;16.44;31.84
65997;BME280;52765;52.258;21.052;2023-04-21T09:03:20;100995.63;;;16.58;32.09
65997;BME280;52765;52.258;21.052;2023-04-21T09:06:03;100996.94;;;16.62;31.03
65997;BME280;52765;52.258;21.052;2023-04-21T09:08:33;100987.47;;;16.58;31.68
65997;BME280;52765;52.258;21.052;2023-04-21T09:10:59;100996.16;;;16.53;30.95
65997;BME280;52765;52.258;21.052;2023-04-21T09:13:32;100987.63;;;16.56;30.92
65997;BME280;52765;52.258;21.052;2023-04-21T09:15:59;100979.47;;;16.56;31.53
65997;BME280;52765;52.258;21.052;2023-04-21T09:18:27;100984.69;;;16.66;31.75
65997;BME280;52765;52.258;21.052;2023-04-21T09:21:09;100984.44;;;16.76;31.76
65997;BME280;52765;52.258;21.052;2023-04-21T09:23:51;100975.91;;;16.79;30.90
65997;BME280;52765;52.258;21.052;2023-04-21T09:26:19;100976.56;;;16.81;30.53
65997;BME280;52765;52.258;21.052;2023-04-21T09:28:48;100972.91;;;16.74;30.53
65997;BME280;52765;52.258;21.052;2023-04-21T09:31:24;100968.41;;;16.81;30.30
65997;BME280;52765;52.258;21.052;2023-04-21T09:33:52;100977.00;;;16.93;30.96
65997;BME280;52765;52.258;21.052;2023-04-21T09:36:22;100972.81;;;17.05;31.31
65997;BME280;52765;52.258;21.052;2023-04-21T09:38:56;100971.91;;;17.13;31.24
65997;BME280;52765;52.258;21.052;2023-04-21T09:41:25;100968.19;;;17.29;31.15
65997;BME280;52765;52.258;21.052;2023-04-21T09:43:51;100974.56;;;17.36;30.91
65997;BME280;52765;52.258;21.052;2023-04-21T09:46:18;100964.50;;;17.36;30.18
65997;BME280;52765;52.258;21.052;2023-04-21T09:48:45;100955.78;;;17.41;30.14
65997;BME280;52765;52.258;21.052;2023-04-21T09:51:11;100960.50;;;17.47;29.50
65997;BME280;52765;52.258;21.052;2023-04-21T09:53:41;100955.88;;;17.48;29.56
65997;BME280;52765;52.258;21.052;2023-04-21T09:56:11;100947.63;;;17.56;29.50
65997;BME280;52765;52.258;21.052;2023-04-21T09:58:51;100951.94;;;17.65;29.58
65997;BME280;52765;52.258;21.052;2023-04-21T10:01:18;100949.00;;;17.67;29.88
65997;BME280;52765;52.258;21.052;2023-04-21T10:03:46;100943.28;;;17.76;29.73
65997;BME280;52765;52.258;21.052;2023-04-21T10:06:12;100946.19;;;17.90;29.68
65997;BME280;52765;52.258;21.052;2023-04-21T10:08:38;100943.63;;;18.03;29.57
65997;BME280;52765;52.258;21.052;2023-04-21T10:11:05;100944.50;;;18.04;29.17
65997;BME280;52765;52.258;21.052;2023-04-21T10:13:31;100946.34;;;18.03;29.49
65997;BME280;52765;52.258;21.052;2023-04-21T10:16:05;100937.88;;;18.13;28.94
65997;BME280;52765;52.258;21.052;2023-04-21T10:18:37;100934.19;;;18.21;28.70
65997;BME280;52765;52.258;21.052;2023-04-21T10:21:08;100934.28;;;18.27;28.77
65997;BME280;52765;52.258;21.052;2023-04-21T10:23:44;100918.88;;;18.41;29.09
65997;BME280;52765;52.258;21.052;2023-04-21T10:26:24;100918.63;;;18.58;29.07
65997;BME280;52765;52.258;21.052;2023-04-21T10:28:57;100928.56;;;18.65;28.89
65997;BME280;52765;52.258;21.052;2023-04-21T10:34:14;100925.44;;;18.68;28.07
65997;BME280;52765;52.258;21.052;2023-04-21T10:39:06;100911.13;;;18.45;27.79
65997;BME280;52765;52.258;21.052;2023-04-21T10:41:33;100912.47;;;18.49;27.89
65997;BME280;52765;52.258;21.052;2023-04-21T10:44:10;100903.22;;;18.50;27.38
65997;BME280;52765;52.258;21.052;2023-04-21T10:46:44;100913.84;;;18.66;27.75
65997;BME280;52765;52.258;21.052;2023-04-21T10:49:29;100905.72;;;18.73;27.17
65997;BME280;52765;52.258;21.052;2023-04-21T10:54:25;100896.44;;;18.89;27.25
65997;BME280;52765;52.258;21.052;2023-04-21T10:56:55;100897.97;;;18.98;26.87
65997;BME280;52765;52.258;21.052;2023-04-21T10:59:21;100898.06;;;19.12;26.79
65997;BME280;52765;52.258;21.052;2023-04-21T11:01:47;100896.25;;;18.91;26.30
65997;BME280;52765;52.258;21.052;2023-04-21T11:04:16;100883.28;;;18.99;26.43
65997;BME280;52765;52.258;21.052;2023-04-21T11:06:42;100885.13;;;18.92;26.29
65997;BME280;52765;52.258;21.052;2023-04-21T11:09:08;100887.22;;;18.90;26.58
65997;BME280;52765;52.258;21.052;2023-04-21T11:11:34;100868.59;;;19.00;26.45
65997;BME280;52765;52.258;21.052;2023-04-21T11:14:02;100880.88;;;19.18;26.44
65997;BME280;52765;52.258;21.052;2023-04-21T11:16:28;100869.47;;;19.08;26.13
65997;BME280;52765;52.258;21.052;2023-04-21T11:18:56;100862.16;;;19.15;26.10
65997;BME280;52765;52.258;21.052;2023-04-21T11:21:22;100861.00;;;19.31;26.32
65997;BME280;52765;52.258;21.052;2023-04-21T11:23:53;100861.69;;;19.39;25.47
65997;BME280;52765;52.258;21.052;2023-04-21T11:26:37;100864.25;;;19.48;25.54
65997;BME280;52765;52.258;21.052;2023-04-21T11:29:04;100867.84;;;19.62;25.64
65997;BME280;52765;52.258;21.052;2023-04-21T11:31:31;100863.13;;;19.77;25.34
65997;BME280;52765;52.258;21.052;2023-04-21T11:34:00;100835.63;;;19.92;25.66
65997;BME280;52765;52.258;21.052;2023-04-21T11:36:26;100847.63;;;20.04;25.01
65997;BME280;52765;52.258;21.052;2023-04-21T11:38:53;100843.41;;;20.08;25.60
65997;BME280;52765;52.258;21.052;2023-04-21T11:41:22;100838.63;;;20.10;25.44
65997;BME280;52765;52.258;21.052;2023-04-21T11:43:49;100835.69;;;20.32;25.82
65997;BME280;52765;52.258;21.052;2023-04-21T11:49:01;100825.59;;;20.66;25.57
65997;BME280;52765;52.258;21.052;2023-04-21T11:51:34;100831.25;;;20.58;24.61
65997;BME280;52765;52.258;21.052;2023-04-21T11:54:00;100840.09;;;20.53;24.08
65997;BME280;52765;52.258;21.052;2023-04-21T11:56:26;100823.88;;;20.45;24.59
65997;BME280;52765;52.258;21.052;2023-04-21T11:58:52;100831.25;;;20.51;24.44
65997;BME280;52765;52.258;21.052;2023-04-21T12:01:19;100820.31;;;20.78;24.20
65997;BME280;52765;52.258;21.052;2023-04-21T12:03:54;100820.88;;;21.06;24.22
65997;BME280;52765;52.258;21.052;2023-04-21T12:06:21;100807.16;;;21.13;23.29
65997;BME280;52765;52.258;21.052;2023-04-21T12:08:53;100818.59;;;21.10;23.35
65997;BME280;52765;52.258;21.052;2023-04-21T12:11:19;100810.47;;;21.42;23.09
65997;BME280;52765;52.258;21.052;2023-04-21T12:13:45;100809.38;;;21.50;22.92
65997;BME280;52765;52.258;21.052;2023-04-21T12:16:11;100805.69;;;21.69;23.28
65997;BME280;52765;52.258;21.052;2023-04-21T12:18:37;100804.75;;;21.43;23.02
65997;BME280;52765;52.258;21.052;2023-04-21T12:21:02;100805.13;;;21.60;23.10
65997;BME280;52765;52.258;21.052;2023-04-21T12:23:29;100794.63;;;21.89;23.37
65997;BME280;52765;52.258;21.052;2023-04-21T12:25:57;100790.25;;;22.13;22.72
65997;BME280;52765;52.258;21.052;2023-04-21T12:28:23;100795.75;;;22.39;22.79
65997;BME280;52765;52.258;21.052;2023-04-21T12:30:48;100796.53;;;22.46;22.55
65997;BME280;52765;52.258;21.052;2023-04-21T12:33:14;100791.59;;;22.54;22.97
65997;BME280;52765;52.258;21.052;2023-04-21T12:35:40;100795.59;;;22.59;22.46
65997;BME280;52765;52.258;21.052;2023-04-21T12:38:42;100789.41;;;22.63;22.66
65997;BME280;52765;52.258;21.052;2023-04-21T12:44:47;100771.81;;;22.46;22.49
65997;BME280;52765;52.258;21.052;2023-04-21T12:47:12;100780.69;;;22.48;22.55
65997;BME280;52765;52.258;21.052;2023-04-21T12:49:38;100782.25;;;22.62;22.88
65997;BME280;52765;52.258;21.052;2023-04-21T12:52:03;100780.53;;;22.61;22.04
65997;BME280;52765;52.258;21.052;2023-04-21T12:54:30;100781.56;;;22.67;22.62
65997;BME280;52765;52.258;21.052;2023-04-21T12:56:55;100788.56;;;22.63;22.44